»·PEaware :: N664NT KEWR-KJFK

N664NT :: KEWR-KJFK

FLIGHT INFORMATION

Flight Status: Arrived
Operator: Privately registered:
United States
More flights under this callsign
Pilot: Anonymous 328 (328)
Aircraft: Unknown
(GA7C)
More flights by this aircraft type
Origin: KEWR Newark Intl
United States
Destination: KJFK Kennedy Intl
United States
More flights between these airports :: More routes between these airports
Route: EWR4 BREZY V39 CMK V419 JUDDS NELIE MAD V1 DPK
File this flight plan on PilotEdge
Remarks:
Altitude:
(Current/Filed)
11,000ft
Speed:
(Current/Filed)
0kts
Departed: 15-Nov-22 12:25 PM
Arrived: 15-Nov-22 01:14 PM
Distance/Time
Traveled:
11nm/0:49
Distance/Time
To Go:
Arrived

Flight Plot

Page will automatically refresh every two minutes.

Flight plan parsing failed; only flown route is shown


Map Options




Map Legend


Flown Route
Filed Route
Departure Airport
Arrival Airport
Navaid (VOR, NDB)
Fix

Horizontal Profiles

Position Reports

Time Latitude Longitude Heading Altitude Ground
Speed
15-Nov-22 12:17 40.676430 -74.180367 201 19ft 0kts
15-Nov-22 12:18 40.676430 -74.180367 201 19ft 0kts
15-Nov-22 12:19 40.676430 -74.180367 201 19ft 0kts
15-Nov-22 12:20 40.676430 -74.180367 201 19ft 0kts
15-Nov-22 12:21 40.676430 -74.180367 201 19ft 0kts
15-Nov-22 12:22 40.676430 -74.180367 201 19ft 0kts
15-Nov-22 12:23 40.675835 -74.180199 131 19ft 3kts
15-Nov-22 12:24 40.697483 -74.165588 28 1045ft 212kts
15-Nov-22 12:25 40.739300 -74.110680 46 3487ft 232kts
15-Nov-22 12:26 40.802624 -74.076927 351 8739ft 277kts
15-Nov-22 12:27 40.886604 -74.090942 353 10922ft 363kts
15-Nov-22 12:28 40.973618 -74.028099 55 11010ft 384kts
15-Nov-22 12:29 41.043903 -73.921165 47 11009ft 384kts
15-Nov-22 12:30 41.116501 -73.816811 47 11008ft 384kts
15-Nov-22 12:31 41.188919 -73.712753 47 10998ft 384kts
15-Nov-22 12:32 41.261238 -73.607994 47 11010ft 384kts
15-Nov-22 12:33 41.333427 -73.503029 48 11001ft 384kts
15-Nov-22 12:34 41.410660 -73.405243 40 11041ft 386kts
15-Nov-22 12:35 41.486843 -73.304909 45 11006ft 384kts
15-Nov-22 12:36 41.562664 -73.203972 44 11007ft 384kts
15-Nov-22 12:37 41.638348 -73.103432 44 11009ft 384kts
15-Nov-22 12:38 41.713295 -73.001160 45 11007ft 384kts
15-Nov-22 12:39 41.787724 -72.899315 45 10650ft 357kts
15-Nov-22 12:40 41.841709 -72.813980 44 9126ft 276kts
15-Nov-22 12:41 41.895161 -72.742393 44 7237ft 267kts
15-Nov-22 12:42 41.946953 -72.673065 44 5096ft 258kts
15-Nov-22 12:43 41.955997 -72.593185 144 3028ft 261kts
15-Nov-22 12:44 41.887070 -72.594246 216 2000ft 255kts
15-Nov-22 12:45 41.836422 -72.660774 225 2000ft 255kts
15-Nov-22 12:46 41.787868 -72.729652 230 2002ft 255kts
15-Nov-22 12:47 41.735401 -72.793678 220 2000ft 255kts
15-Nov-22 12:48 41.682262 -72.858055 222 3622ft 304kts
15-Nov-22 12:49 41.623032 -72.924553 205 4475ft 240kts
15-Nov-22 12:50 41.554825 -72.953209 160 4277ft 268kts
15-Nov-22 12:51 41.495392 -72.892654 140 6953ft 274kts
15-Nov-22 12:52 41.435497 -72.826271 140 10080ft 287kts
15-Nov-22 12:53 41.360336 -72.744766 148 11009ft 384kts
15-Nov-22 12:54 41.260609 -72.755585 220 11012ft 384kts
15-Nov-22 12:55 41.186455 -72.842987 221 11010ft 306kts
15-Nov-22 12:56 41.125080 -72.914932 221 11008ft 292kts
15-Nov-22 12:57 41.064510 -72.985924 221 10999ft 271kts
15-Nov-22 12:58 41.012154 -73.047302 221 9897ft 246kts
15-Nov-22 12:59 40.961109 -73.106949 221 8397ft 242kts
15-Nov-22 13:00 40.910858 -73.165443 221 6895ft 238kts
15-Nov-22 13:01 40.868141 -73.226372 256 6008ft 211kts
15-Nov-22 13:02 40.855728 -73.295067 256 6002ft 184kts
15-Nov-22 13:03 40.844559 -73.356804 256 6003ft 163kts
15-Nov-22 13:04 40.833961 -73.415466 256 5580ft 164kts
15-Nov-22 13:05 40.823330 -73.474327 256 4713ft 162kts
15-Nov-22 13:06 40.805553 -73.528503 240 3816ft 162kts
15-Nov-22 13:07 40.783291 -73.578827 239 3215ft 157kts
15-Nov-22 13:08 40.761150 -73.628334 232 2658ft 155kts
15-Nov-22 13:09 40.728779 -73.665588 220 2112ft 150kts
15-Nov-22 13:10 40.699142 -73.704330 231 1294ft 150kts
15-Nov-22 13:11 40.667068 -73.737747 210 422ft 146kts
15-Nov-22 13:12 40.634617 -73.763130 210 20ft 62kts
15-Nov-22 13:13 40.633419 -73.764069 210 20ft 0kts
15-Nov-22 13:14 40.633419 -73.764069 210 20ft 0kts
15-Nov-22 13:15 40.633419 -73.764069 210 20ft 0kts
15-Nov-22 13:16 40.633419 -73.764069 210 20ft 0kts
15-Nov-22 13:17 40.633419 -73.764069 210 20ft 0kts
15-Nov-22 13:18 40.633419 -73.764069 210 20ft 0kts
15-Nov-22 13:19 40.633419 -73.764069 210 20ft 0kts
15-Nov-22 13:20 40.633419 -73.764069 210 20ft 0kts
15-Nov-22 13:21 40.633419 -73.764069 210 20ft 0kts
15-Nov-22 13:22 40.633419 -73.764069 210 20ft 0kts
15-Nov-22 13:23 40.633419 -73.764069 210 20ft 0kts
15-Nov-22 13:24 40.633419 -73.764069 210 20ft 0kts
15-Nov-22 13:25 40.633419 -73.764069 210 20ft 0kts
15-Nov-22 13:26 40.854198 -74.055504 280 15ft 0kts

Navigation Log

Ident Type
Flight plan parsing failed, navigation log unavailable